Time,TemperatureF,DewpointF,PressureIn,WindDirection,WindDirectionDegrees,WindSpeedMPH,WindSpeedGustMPH,Humidity,HourlyPrecipIn,Conditions,Clouds,dailyrainin,SoftwareType,DateUTC
2013-04-27 00:00:00,48.2,41.0,30.34,South,188,0.0,0.0,75,0.00,,,0.00,weatherlink.com 1.10,2013-04-27 04:00:00,
2013-04-27 00:15:00,48.3,41.0,30.34,South,188,0.0,0.0,76,0.00,,,0.00,weatherlink.com 1.10,2013-04-27 04:15:00,
2013-04-27 00:30:00,48.4,42.0,30.33,South,188,1.0,2.0,78,0.00,,,0.00,weatherlink.com 1.10,2013-04-27 04:30:00,
2013-04-27 00:45:00,48.4,42.0,30.32,South,188,0.0,0.0,77,0.00,,,0.00,weatherlink.com 1.10,2013-04-27 04:45:00,
2013-04-27 01:00:00,48.3,42.0,30.31,South,188,0.0,0.0,78,0.00,,,0.00,weatherlink.com 1.10,2013-04-27 05:00:00,
2013-04-27 01:15:00,48.0,41.0,30.31,South,188,0.0,0.0,78,0.00,,,0.00,weatherlink.com 1.10,2013-04-27 05:15:00,
2013-04-27 01:30:00,47.5,41.0,30.30,South,188,0.0,0.0,79,0.00,,,0.00,weatherlink.com 1.10,2013-04-27 05:30:00,
2013-04-27 01:45:00,47.1,42.0,30.31,South,188,0.0,0.0,81,0.00,,,0.00,weatherlink.com 1.10,2013-04-27 05:45:00,
2013-04-27 02:00:00,46.9,42.0,30.31,South,188,0.0,0.0,82,0.00,,,0.00,weatherlink.com 1.10,2013-04-27 06:00:00,
2013-04-27 02:15:00,46.9,42.0,30.31,South,188,0.0,0.0,82,0.00,,,0.00,weatherlink.com 1.10,2013-04-27 06:15:00,
2013-04-27 02:30:00,47.0,42.0,30.31,South,188,0.0,0.0,82,0.00,,,0.00,weatherlink.com 1.10,2013-04-27 06:30:00,
2013-04-27 02:45:00,47.1,43.0,30.31,South,188,0.0,0.0,84,0.00,,,0.00,weatherlink.com 1.10,2013-04-27 06:45:00,
2013-04-27 03:00:00,47.2,43.0,30.30,South,188,0.0,0.0,84,0.00,,,0.00,weatherlink.com 1.10,2013-04-27 07:00:00,
2013-04-27 03:15:00,47.2,42.0,30.29,South,188,0.0,0.0,82,0.00,,,0.00,weatherlink.com 1.10,2013-04-27 07:15:00,
2013-04-27 03:30:00,47.0,42.0,30.28,South,188,0.0,0.0,83,0.00,,,0.00,weatherlink.com 1.10,2013-04-27 07:30:00,
2013-04-27 03:45:00,46.4,42.0,30.29,South,188,0.0,0.0,84,0.00,,,0.00,weatherlink.com 1.10,2013-04-27 07:45:00,
2013-04-27 04:00:00,46.0,42.0,30.28,South,188,0.0,0.0,85,0.00,,,0.00,weatherlink.com 1.10,2013-04-27 08:00:00,
2013-04-27 04:15:00,45.4,41.0,30.28,South,188,0.0,0.0,85,0.00,,,0.00,weatherlink.com 1.10,2013-04-27 08:15:00,
2013-04-27 04:30:00,45.0,41.0,30.28,South,188,0.0,0.0,85,0.00,,,0.00,weatherlink.com 1.10,2013-04-27 08:30:00,
2013-04-27 04:45:00,44.9,41.0,30.28,South,188,0.0,2.0,87,0.00,,,0.00,weatherlink.com 1.10,2013-04-27 08:45:00,
2013-04-27 05:00:00,44.8,41.0,30.27,South,188,0.0,2.0,87,0.00,,,0.00,weatherlink.com 1.10,2013-04-27 09:00:00,
2013-04-27 05:15:00,45.1,42.0,30.27,South,188,0.0,2.0,87,0.00,,,0.00,weatherlink.com 1.10,2013-04-27 09:15:00,
2013-04-27 05:30:00,45.3,42.0,30.26,South,188,0.0,0.0,87,0.00,,,0.00,weatherlink.com 1.10,2013-04-27 09:30:00,
2013-04-27 05:45:00,45.6,42.0,30.25,WNW,292,0.0,3.0,86,0.00,,,0.00,weatherlink.com 1.10,2013-04-27 09:45:00,
2013-04-27 06:00:00,46.1,43.0,30.25,WNW,292,0.0,0.0,88,0.00,,,0.00,weatherlink.com 1.10,2013-04-27 10:00:00,
2013-04-27 06:15:00,46.3,43.0,30.25,WNW,292,1.0,1.0,87,0.00,,,0.00,weatherlink.com 1.10,2013-04-27 10:15:00,
2013-04-27 06:31:00,46.7,42.0,30.24,WNW,292,0.0,2.0,84,0.00,,,0.00,weatherlink.com 1.10,2013-04-27 10:31:00,
2013-04-27 06:46:00,47.0,42.0,30.23,NW,315,0.0,3.0,83,0.00,,,0.00,weatherlink.com 1.10,2013-04-27 10:46:00,
2013-04-27 07:01:00,47.4,41.0,30.23,North,350,2.0,3.0,79,0.00,,,0.00,weatherlink.com 1.10,2013-04-27 11:01:00,
2013-04-27 07:16:00,47.9,42.0,30.24,North,350,0.0,0.0,79,0.00,,,0.00,weatherlink.com 1.10,2013-04-27 11:16:00,
2013-04-27 07:31:00,48.1,43.0,30.24,North,350,0.0,2.0,82,0.00,,,0.00,weatherlink.com 1.10,2013-04-27 11:31:00,
2013-04-27 07:46:00,48.3,43.0,30.24,North,350,0.0,1.0,81,0.00,,,0.00,weatherlink.com 1.10,2013-04-27 11:46:00,
2013-04-27 08:01:00,48.5,43.0,30.23,North,350,0.0,0.0,82,0.00,,,0.00,weatherlink.com 1.10,2013-04-27 12:01:00,
2013-04-27 08:16:00,48.6,44.0,30.23,North,350,0.0,2.0,83,0.00,,,0.00,weatherlink.com 1.10,2013-04-27 12:16:00,
2013-04-27 08:31:00,48.8,43.0,30.23,North,350,0.0,1.0,81,0.00,,,0.00,weatherlink.com 1.10,2013-04-27 12:31:00,
2013-04-27 08:46:00,49.5,43.0,30.23,NE,51,1.0,3.0,79,0.00,,,0.00,weatherlink.com 1.10,2013-04-27 12:46:00,
2013-04-27 09:01:00,50.4,43.0,30.24,SSE,166,0.0,4.0,77,0.00,,,0.00,weatherlink.com 1.10,2013-04-27 13:01:00,
2013-04-27 09:16:00,51.0,44.0,30.24,South,182,0.0,3.0,76,0.00,,,0.00,weatherlink.com 1.10,2013-04-27 13:16:00,
2013-04-27 09:31:00,51.4,44.0,30.24,South,182,0.0,0.0,76,0.00,,,0.00,weatherlink.com 1.10,2013-04-27 13:31:00,
2013-04-27 10:01:00,52.5,45.0,30.23,South,182,0.0,1.0,75,0.00,,,0.00,weatherlink.com 1.10,2013-04-27 14:01:00,
2013-04-27 10:16:00,53.7,46.0,30.22,South,169,1.0,2.0,75,0.00,,,0.00,weatherlink.com 1.10,2013-04-27 14:16:00,
2013-04-27 10:31:00,54.5,46.0,30.21,SE,135,3.0,5.0,74,0.00,,,0.00,weatherlink.com 1.10,2013-04-27 14:31:00,
2013-04-27 10:46:00,54.6,47.0,30.21,South,171,1.0,4.0,76,0.00,,,0.00,weatherlink.com 1.10,2013-04-27 14:46:00,
2013-04-27 11:01:00,55.2,48.0,30.21,SSE,156,1.0,4.0,77,0.00,,,0.00,weatherlink.com 1.10,2013-04-27 15:01:00,
2013-04-27 11:16:00,56.4,49.0,30.22,SSE,154,2.0,5.0,76,0.00,,,0.00,weatherlink.com 1.10,2013-04-27 15:16:00,
2013-04-27 11:31:00,56.6,49.0,30.22,SSE,151,1.0,4.0,76,0.00,,,0.00,weatherlink.com 1.10,2013-04-27 15:31:00,
2013-04-27 11:46:00,56.8,49.0,30.22,SE,141,3.0,6.0,75,0.00,,,0.00,weatherlink.com 1.10,2013-04-27 15:46:00,
2013-04-27 12:01:00,56.1,49.0,30.22,SE,136,1.0,6.0,76,0.00,,,0.00,weatherlink.com 1.10,2013-04-27 16:01:00,
2013-04-27 12:16:00,56.2,49.0,30.22,SSE,147,0.0,3.0,76,0.00,,,0.00,weatherlink.com 1.10,2013-04-27 16:16:00,
2013-04-27 12:31:00,56.6,49.0,30.21,SSE,147,0.0,4.0,77,0.00,,,0.00,weatherlink.com 1.10,2013-04-27 16:31:00,
2013-04-27 12:46:00,57.2,49.0,30.21,East,84,0.0,4.0,75,0.00,,,0.00,weatherlink.com 1.10,2013-04-27 16:46:00,
2013-04-27 13:01:00,57.3,50.0,30.20,SSE,158,1.0,6.0,77,0.00,,,0.00,weatherlink.com 1.10,2013-04-27 17:01:00,
2013-04-27 13:16:00,57.4,50.0,30.20,SSE,158,3.0,5.0,76,0.00,,,0.00,weatherlink.com 1.10,2013-04-27 17:16:00,
2013-04-27 13:31:00,58.5,50.0,30.18,South,173,3.0,7.0,73,0.00,,,0.00,weatherlink.com 1.10,2013-04-27 17:31:00,
2013-04-27 13:46:00,58.8,51.0,30.18,ESE,112,2.0,9.0,74,0.00,,,0.00,weatherlink.com 1.10,2013-04-27 17:46:00,
2013-04-27 14:01:00,58.6,51.0,30.15,East,87,3.0,5.0,76,0.00,,,0.00,weatherlink.com 1.10,2013-04-27 18:01:00,
2013-04-27 14:17:00,59.2,51.0,30.14,ESE,104,1.0,7.0,75,0.00,,,0.00,weatherlink.com 1.10,2013-04-27 18:17:00,
2013-04-27 14:32:00,59.8,52.0,30.14,SE,126,2.0,9.0,75,0.00,,,0.00,weatherlink.com 1.10,2013-04-27 18:32:00,
2013-04-27 14:47:00,60.4,52.0,30.13,NE,55,0.0,6.0,74,0.00,,,0.00,weatherlink.com 1.10,2013-04-27 18:47:00,
2013-04-27 15:02:00,60.7,52.0,30.13,ENE,61,0.0,7.0,73,0.00,,,0.00,weatherlink.com 1.10,2013-04-27 19:02:00,
2013-04-27 15:17:00,60.5,51.0,30.14,East,79,0.0,2.0,72,0.00,,,0.00,weatherlink.com 1.10,2013-04-27 19:17:00,
2013-04-27 15:32:00,60.5,52.0,30.12,ESE,109,2.0,5.0,73,0.00,,,0.00,weatherlink.com 1.10,2013-04-27 19:32:00,
2013-04-27 15:47:00,60.3,52.0,30.12,ESE,105,4.0,5.0,73,0.00,,,0.00,weatherlink.com 1.10,2013-04-27 19:47:00,
2013-04-27 16:02:00,59.3,52.0,30.12,SSW,212,6.0,11.0,76,0.00,,,0.00,weatherlink.com 1.10,2013-04-27 20:02:00,
2013-04-27 16:17:00,58.8,52.0,30.11,SSE,165,2.0,7.0,79,0.00,,,0.00,weatherlink.com 1.10,2013-04-27 20:17:00,
2013-04-27 16:32:00,58.4,52.0,30.11,SSE,159,1.0,7.0,80,0.00,,,0.00,weatherlink.com 1.10,2013-04-27 20:32:00,
2013-04-27 16:47:00,58.2,52.0,30.10,SSE,159,1.0,7.0,81,0.00,,,0.00,weatherlink.com 1.10,2013-04-27 20:47:00,
2013-04-27 17:02:00,57.8,53.0,30.10,SE,129,2.0,11.0,85,0.00,,,0.00,weatherlink.com 1.10,2013-04-27 21:02:00,
2013-04-27 17:17:00,57.8,54.0,30.09,South,171,2.0,4.0,88,0.00,,,0.00,weatherlink.com 1.10,2013-04-27 21:17:00,
2013-04-27 17:32:00,58.1,54.0,30.08,SE,137,2.0,10.0,87,0.00,,,0.00,weatherlink.com 1.10,2013-04-27 21:32:00,
2013-04-27 17:47:00,57.9,54.0,30.08,ESE,112,3.0,4.0,87,0.00,,,0.00,weatherlink.com 1.10,2013-04-27 21:47:00,
2013-04-27 18:02:00,57.7,54.0,30.08,South,178,3.0,6.0,86,0.00,,,0.00,weatherlink.com 1.10,2013-04-27 22:02:00,
2013-04-27 18:17:00,57.3,54.0,30.07,East,94,0.0,5.0,87,0.00,,,0.00,weatherlink.com 1.10,2013-04-27 22:17:00,
2013-04-27 18:32:00,57.0,54.0,30.06,ENE,67,1.0,5.0,88,0.00,,,0.00,weatherlink.com 1.10,2013-04-27 22:32:00,
2013-04-27 18:47:00,56.7,54.0,30.06,ENE,70,3.0,9.0,89,0.00,,,0.00,weatherlink.com 1.10,2013-04-27 22:47:00,
2013-04-27 19:02:00,56.4,54.0,30.05,ESE,108,2.0,5.0,90,0.00,,,0.00,weatherlink.com 1.10,2013-04-27 23:02:00,
2013-04-27 19:17:00,56.2,54.0,30.04,ENE,74,0.0,3.0,91,0.00,,,0.00,weatherlink.com 1.10,2013-04-27 23:17:00,
2013-04-27 19:32:00,56.0,54.0,30.03,NE,55,1.0,5.0,92,0.00,,,0.00,weatherlink.com 1.10,2013-04-27 23:32:00,
2013-04-27 19:47:00,55.7,54.0,30.02,ENE,76,0.0,6.0,92,0.00,,,0.00,weatherlink.com 1.10,2013-04-27 23:47:00,
2013-04-27 20:02:00,55.5,53.0,30.02,NE,44,3.0,3.0,92,0.00,,,0.00,weatherlink.com 1.10,2013-04-28 00:02:00,
2013-04-27 20:17:00,55.5,54.0,30.02,ENE,74,0.0,5.0,93,0.00,,,0.00,weatherlink.com 1.10,2013-04-28 00:17:00,
2013-04-27 20:32:00,55.5,53.0,30.02,ESE,112,1.0,5.0,92,0.00,,,0.00,weatherlink.com 1.10,2013-04-28 00:32:00,
2013-04-27 20:47:00,55.5,53.0,30.00,East,88,2.0,4.0,92,0.00,,,0.00,weatherlink.com 1.10,2013-04-28 00:47:00,
2013-04-27 21:02:00,55.5,54.0,30.00,East,97,0.0,4.0,93,0.00,,,0.00,weatherlink.com 1.10,2013-04-28 01:02:00,
2013-04-27 21:17:00,55.5,53.0,30.00,SE,146,1.0,5.0,92,0.00,,,0.00,weatherlink.com 1.10,2013-04-28 01:17:00,
2013-04-27 21:32:00,55.7,54.0,29.99,ESE,119,0.0,5.0,92,0.00,,,0.00,weatherlink.com 1.10,2013-04-28 01:32:00,
2013-04-27 21:47:00,55.8,54.0,29.99,ESE,119,2.0,4.0,92,0.00,,,0.00,weatherlink.com 1.10,2013-04-28 01:47:00,
2013-04-27 22:02:00,55.9,53.0,29.99,ESE,113,3.0,5.0,91,0.00,,,0.00,weatherlink.com 1.10,2013-04-28 02:02:00,
2013-04-27 22:17:00,55.9,53.0,29.98,ESE,106,0.0,8.0,91,0.00,,,0.00,weatherlink.com 1.10,2013-04-28 02:17:00,
2013-04-27 22:32:00,55.9,53.0,29.98,ESE,109,0.0,3.0,91,0.00,,,0.00,weatherlink.com 1.10,2013-04-28 02:32:00,
2013-04-27 22:47:00,55.9,53.0,29.98,ESE,120,2.0,8.0,91,0.00,,,0.00,weatherlink.com 1.10,2013-04-28 02:47:00,
2013-04-27 23:02:00,55.9,53.0,29.97,ESE,123,2.0,6.0,91,0.00,,,0.00,weatherlink.com 1.10,2013-04-28 03:02:00,
2013-04-27 23:17:00,55.8,53.0,29.97,ESE,118,0.0,4.0,91,0.00,,,0.00,weatherlink.com 1.10,2013-04-28 03:17:00,
2013-04-27 23:32:00,55.8,53.0,29.96,SE,128,1.0,5.0,91,0.00,,,0.00,weatherlink.com 1.10,2013-04-28 03:32:00,
2013-04-27 23:47:00,55.8,53.0,29.96,SE,140,2.0,5.0,91,0.00,,,0.00,weatherlink.com 1.10,2013-04-28 03:47:00,